sensor_id;sensor_type;location;lat;lon;timestamp;temperature;humidity
3940;DHT22;1984;48.312;9.244;2023-05-27T00:01:17;10.70;99.90
3940;DHT22;1984;48.312;9.244;2023-05-27T00:03:44;10.70;99.90
3940;DHT22;1984;48.312;9.244;2023-05-27T00:06:10;10.60;99.90
3940;DHT22;1984;48.312;9.244;2023-05-27T00:08:36;10.60;99.90
3940;DHT22;1984;48.312;9.244;2023-05-27T00:11:01;10.50;99.90
3940;DHT22;1984;48.312;9.244;2023-05-27T00:13:27;10.50;99.90
3940;DHT22;1984;48.312;9.244;2023-05-27T00:15:52;10.50;99.90
3940;DHT22;1984;48.312;9.244;2023-05-27T00:18:18;10.40;99.90
3940;DHT22;1984;48.312;9.244;2023-05-27T00:20:43;10.30;99.90
3940;DHT22;1984;48.312;9.244;2023-05-27T00:23:09;10.30;99.90
3940;DHT22;1984;48.312;9.244;2023-05-27T00:25:35;10.20;99.90
3940;DHT22;1984;48.312;9.244;2023-05-27T00:28:01;10.20;99.90
3940;DHT22;1984;48.312;9.244;2023-05-27T00:30:26;10.20;99.90
3940;DHT22;1984;48.312;9.244;2023-05-27T00:32:52;10.20;99.90
3940;DHT22;1984;48.312;9.244;2023-05-27T00:35:18;10.20;99.90
3940;DHT22;1984;48.312;9.244;2023-05-27T00:37:43;10.20;99.90
3940;DHT22;1984;48.312;9.244;2023-05-27T00:40:11;10.20;99.90
3940;DHT22;1984;48.312;9.244;2023-05-27T00:42:36;10.30;99.90
3940;DHT22;1984;48.312;9.244;2023-05-27T00:45:03;10.30;99.90
3940;DHT22;1984;48.312;9.244;2023-05-27T00:47:31;10.30;99.90
3940;DHT22;1984;48.312;9.244;2023-05-27T00:49:57;10.30;99.90
3940;DHT22;1984;48.312;9.244;2023-05-27T00:52:23;10.20;99.90
3940;DHT22;1984;48.312;9.244;2023-05-27T00:54:49;10.20;99.90
3940;DHT22;1984;48.312;9.244;2023-05-27T00:57:15;10.30;99.90
3940;DHT22;1984;48.312;9.244;2023-05-27T00:59:41;10.20;99.90
3940;DHT22;1984;48.312;9.244;2023-05-27T01:02:06;10.20;99.90
3940;DHT22;1984;48.312;9.244;2023-05-27T01:04:32;10.20;99.90
3940;DHT22;1984;48.312;9.244;2023-05-27T01:07:10;10.10;99.90
3940;DHT22;1984;48.312;9.244;2023-05-27T01:09:47;10.10;99.90
3940;DHT22;1984;48.312;9.244;2023-05-27T01:14:38;10.10;99.90
3940;DHT22;1984;48.312;9.244;2023-05-27T01:17:05;10.00;99.90
3940;DHT22;1984;48.312;9.244;2023-05-27T01:19:37;10.00;99.90
3940;DHT22;1984;48.312;9.244;2023-05-27T01:22:07;9.90;99.90
3940;DHT22;1984;48.312;9.244;2023-05-27T01:24:32;9.90;99.90
3940;DHT22;1984;48.312;9.244;2023-05-27T01:26:58;9.90;99.90
3940;DHT22;1984;48.312;9.244;2023-05-27T01:29:27;9.90;99.90
3940;DHT22;1984;48.312;9.244;2023-05-27T01:32:04;9.90;99.90
3940;DHT22;1984;48.312;9.244;2023-05-27T01:35:02;10.00;99.90
3940;DHT22;1984;48.312;9.244;2023-05-27T01:37:34;10.00;99.90
3940;DHT22;1984;48.312;9.244;2023-05-27T01:40:01;10.00;99.90
3940;DHT22;1984;48.312;9.244;2023-05-27T01:42:33;10.10;99.90
3940;DHT22;1984;48.312;9.244;2023-05-27T01:45:00;10.10;99.90
3940;DHT22;1984;48.312;9.244;2023-05-27T01:47:26;10.20;99.90
3940;DHT22;1984;48.312;9.244;2023-05-27T01:49:52;10.30;99.90
3940;DHT22;1984;48.312;9.244;2023-05-27T01:52:18;10.40;99.90
3940;DHT22;1984;48.312;9.244;2023-05-27T01:54:43;10.40;99.90
3940;DHT22;1984;48.312;9.244;2023-05-27T01:57:09;10.40;99.90
3940;DHT22;1984;48.312;9.244;2023-05-27T01:59:34;10.40;99.90
3940;DHT22;1984;48.312;9.244;2023-05-27T02:02:00;10.50;99.90
3940;DHT22;1984;48.312;9.244;2023-05-27T02:04:26;10.50;99.90
3940;DHT22;1984;48.312;9.244;2023-05-27T02:06:51;10.60;99.90
3940;DHT22;1984;48.312;9.244;2023-05-27T02:09:17;10.60;99.90
3940;DHT22;1984;48.312;9.244;2023-05-27T02:11:43;10.80;99.90
3940;DHT22;1984;48.312;9.244;2023-05-27T02:14:08;10.90;99.90
3940;DHT22;1984;48.312;9.244;2023-05-27T02:16:34;11.00;99.90
3940;DHT22;1984;48.312;9.244;2023-05-27T02:19:03;11.00;99.90
3940;DHT22;1984;48.312;9.244;2023-05-27T02:21:30;11.10;99.90
3940;DHT22;1984;48.312;9.244;2023-05-27T02:23:55;11.20;99.90
3940;DHT22;1984;48.312;9.244;2023-05-27T02:26:21;11.20;99.90
3940;DHT22;1984;48.312;9.244;2023-05-27T02:28:47;11.20;99.90
3940;DHT22;1984;48.312;9.244;2023-05-27T02:31:13;11.30;99.90
3940;DHT22;1984;48.312;9.244;2023-05-27T02:33:38;11.20;99.90
3940;DHT22;1984;48.312;9.244;2023-05-27T02:36:04;11.20;99.90
3940;DHT22;1984;48.312;9.244;2023-05-27T02:38:31;11.20;99.90
3940;DHT22;1984;48.312;9.244;2023-05-27T02:40:56;11.20;99.90
3940;DHT22;1984;48.312;9.244;2023-05-27T02:43:22;11.20;99.90
3940;DHT22;1984;48.312;9.244;2023-05-27T02:45:47;11.20;99.90
3940;DHT22;1984;48.312;9.244;2023-05-27T02:48:13;11.20;99.90
3940;DHT22;1984;48.312;9.244;2023-05-27T02:50:39;11.20;99.90
3940;DHT22;1984;48.312;9.244;2023-05-27T02:53:04;11.20;99.90
3940;DHT22;1984;48.312;9.244;2023-05-27T02:55:30;11.20;99.90
3940;DHT22;1984;48.312;9.244;2023-05-27T02:57:55;11.30;99.90
3940;DHT22;1984;48.312;9.244;2023-05-27T03:00:21;11.20;99.90
3940;DHT22;1984;48.312;9.244;2023-05-27T03:02:47;11.10;99.90
3940;DHT22;1984;48.312;9.244;2023-05-27T03:05:13;11.10;99.90
3940;DHT22;1984;48.312;9.244;2023-05-27T03:07:39;11.10;99.90
3940;DHT22;1984;48.312;9.244;2023-05-27T03:10:07;11.10;99.90
3940;DHT22;1984;48.312;9.244;2023-05-27T03:12:33;11.00;99.90
3940;DHT22;1984;48.312;9.244;2023-05-27T03:14:58;11.00;99.90
3940;DHT22;1984;48.312;9.244;2023-05-27T03:17:24;11.00;99.90
3940;DHT22;1984;48.312;9.244;2023-05-27T03:19:50;11.00;99.90
3940;DHT22;1984;48.312;9.244;2023-05-27T03:22:16;11.00;99.90
3940;DHT22;1984;48.312;9.244;2023-05-27T03:24:41;11.00;99.90
3940;DHT22;1984;48.312;9.244;2023-05-27T03:27:07;11.00;99.90
3940;DHT22;1984;48.312;9.244;2023-05-27T03:29:33;10.90;99.90
3940;DHT22;1984;48.312;9.244;2023-05-27T03:31:58;10.90;99.90
3940;DHT22;1984;48.312;9.244;2023-05-27T03:34:24;10.90;99.90
3940;DHT22;1984;48.312;9.244;2023-05-27T03:36:50;10.80;99.90
3940;DHT22;1984;48.312;9.244;2023-05-27T03:39:16;10.80;99.90
3940;DHT22;1984;48.312;9.244;2023-05-27T03:41:43;10.70;99.90
3940;DHT22;1984;48.312;9.244;2023-05-27T03:44:08;10.60;99.90
3940;DHT22;1984;48.312;9.244;2023-05-27T03:46:35;10.50;99.90
3940;DHT22;1984;48.312;9.244;2023-05-27T03:49:01;10.50;99.90
3940;DHT22;1984;48.312;9.244;2023-05-27T03:51:27;10.50;99.90
3940;DHT22;1984;48.312;9.244;2023-05-27T03:53:52;10.50;99.90
3940;DHT22;1984;48.312;9.244;2023-05-27T03:56:18;10.40;99.90
3940;DHT22;1984;48.312;9.244;2023-05-27T03:58:44;10.40;99.90
3940;DHT22;1984;48.312;9.244;2023-05-27T04:01:09;10.40;99.90
3940;DHT22;1984;48.312;9.244;2023-05-27T04:03:36;10.30;99.90
3940;DHT22;1984;48.312;9.244;2023-05-27T04:06:02;10.20;99.90
3940;DHT22;1984;48.312;9.244;2023-05-27T04:08:28;10.20;99.90
3940;DHT22;1984;48.312;9.244;2023-05-27T04:10:57;10.10;99.90
3940;DHT22;1984;48.312;9.244;2023-05-27T04:13:22;10.00;99.90
3940;DHT22;1984;48.312;9.244;2023-05-27T04:15:48;10.00;99.90
3940;DHT22;1984;48.312;9.244;2023-05-27T04:18:14;9.90;99.90
3940;DHT22;1984;48.312;9.244;2023-05-27T04:20:40;9.90;99.90
3940;DHT22;1984;48.312;9.244;2023-05-27T04:23:08;10.00;99.90
3940;DHT22;1984;48.312;9.244;2023-05-27T04:25:34;10.10;99.90
3940;DHT22;1984;48.312;9.244;2023-05-27T04:28:00;10.10;99.90
3940;DHT22;1984;48.312;9.244;2023-05-27T04:30:32;10.10;99.90
3940;DHT22;1984;48.312;9.244;2023-05-27T04:33:01;10.20;99.90
3940;DHT22;1984;48.312;9.244;2023-05-27T04:35:27;10.20;99.90
3940;DHT22;1984;48.312;9.244;2023-05-27T04:37:56;10.20;99.90
3940;DHT22;1984;48.312;9.244;2023-05-27T04:40:22;10.30;99.90
3940;DHT22;1984;48.312;9.244;2023-05-27T04:42:47;10.30;99.90
3940;DHT22;1984;48.312;9.244;2023-05-27T04:45:13;10.40;99.90
3940;DHT22;1984;48.312;9.244;2023-05-27T04:47:39;10.50;99.90
3940;DHT22;1984;48.312;9.244;2023-05-27T04:50:06;10.50;99.90
3940;DHT22;1984;48.312;9.244;2023-05-27T04:52:33;10.60;99.90
3940;DHT22;1984;48.312;9.244;2023-05-27T04:55:06;10.70;99.90
3940;DHT22;1984;48.312;9.244;2023-05-27T04:57:33;10.90;99.90
3940;DHT22;1984;48.312;9.244;2023-05-27T04:59:59;11.10;99.90
3940;DHT22;1984;48.312;9.244;2023-05-27T05:02:43;11.20;99.90
3940;DHT22;1984;48.312;9.244;2023-05-27T05:05:12;11.40;99.90
3940;DHT22;1984;48.312;9.244;2023-05-27T05:07:38;11.60;99.90
3940;DHT22;1984;48.312;9.244;2023-05-27T05:10:08;11.70;99.90
3940;DHT22;1984;48.312;9.244;2023-05-27T05:12:34;11.80;99.90
3940;DHT22;1984;48.312;9.244;2023-05-27T05:15:00;11.90;99.90
3940;DHT22;1984;48.312;9.244;2023-05-27T05:17:26;12.00;99.90
3940;DHT22;1984;48.312;9.244;2023-05-27T05:19:52;12.20;99.90
3940;DHT22;1984;48.312;9.244;2023-05-27T05:22:18;12.30;99.90
3940;DHT22;1984;48.312;9.244;2023-05-27T05:24:45;12.40;99.90
3940;DHT22;1984;48.312;9.244;2023-05-27T05:27:11;12.50;99.90
3940;DHT22;1984;48.312;9.244;2023-05-27T05:29:36;12.60;99.90
3940;DHT22;1984;48.312;9.244;2023-05-27T05:32:03;12.70;99.90
3940;DHT22;1984;48.312;9.244;2023-05-27T05:34:28;12.80;99.90
3940;DHT22;1984;48.312;9.244;2023-05-27T05:36:54;12.80;99.90
3940;DHT22;1984;48.312;9.244;2023-05-27T05:39:20;12.90;99.90
3940;DHT22;1984;48.312;9.244;2023-05-27T05:41:46;13.10;99.90
3940;DHT22;1984;48.312;9.244;2023-05-27T05:44:11;13.20;99.90
3940;DHT22;1984;48.312;9.244;2023-05-27T05:46:37;13.30;99.90
3940;DHT22;1984;48.312;9.244;2023-05-27T05:49:04;13.40;99.90
3940;DHT22;1984;48.312;9.244;2023-05-27T05:51:29;13.50;99.90
3940;DHT22;1984;48.312;9.244;2023-05-27T05:53:57;13.70;99.90
3940;DHT22;1984;48.312;9.244;2023-05-27T05:56:23;13.70;99.90
3940;DHT22;1984;48.312;9.244;2023-05-27T05:58:48;13.80;99.90
3940;DHT22;1984;48.312;9.244;2023-05-27T06:01:15;13.90;99.90
3940;DHT22;1984;48.312;9.244;2023-05-27T06:03:40;13.90;99.90
3940;DHT22;1984;48.312;9.244;2023-05-27T06:06:06;13.90;99.90
3940;DHT22;1984;48.312;9.244;2023-05-27T06:08:32;13.90;99.90
3940;DHT22;1984;48.312;9.244;2023-05-27T06:10:57;13.90;99.90
3940;DHT22;1984;48.312;9.244;2023-05-27T06:13:23;14.00;99.90
3940;DHT22;1984;48.312;9.244;2023-05-27T06:15:48;14.10;99.90
3940;DHT22;1984;48.312;9.244;2023-05-27T06:18:14;14.20;99.90
3940;DHT22;1984;48.312;9.244;2023-05-27T06:20:40;14.30;99.90
3940;DHT22;1984;48.312;9.244;2023-05-27T06:23:05;14.50;99.90
3940;DHT22;1984;48.312;9.244;2023-05-27T06:25:32;14.50;99.90
3940;DHT22;1984;48.312;9.244;2023-05-27T06:27:57;14.70;99.90
3940;DHT22;1984;48.312;9.244;2023-05-27T06:30:23;14.90;99.90
3940;DHT22;1984;48.312;9.244;2023-05-27T06:32:49;15.00;99.90
3940;DHT22;1984;48.312;9.244;2023-05-27T06:35:14;15.10;99.90
3940;DHT22;1984;48.312;9.244;2023-05-27T06:37:40;15.10;99.90
3940;DHT22;1984;48.312;9.244;2023-05-27T06:40:06;15.30;99.90
3940;DHT22;1984;48.312;9.244;2023-05-27T06:42:31;15.60;99.90
3940;DHT22;1984;48.312;9.244;2023-05-27T06:44:57;15.70;99.90
3940;DHT22;1984;48.312;9.244;2023-05-27T06:47:22;15.90;99.90
3940;DHT22;1984;48.312;9.244;2023-05-27T06:49:48;16.20;99.90
3940;DHT22;1984;48.312;9.244;2023-05-27T06:52:13;16.40;99.90
3940;DHT22;1984;48.312;9.244;2023-05-27T06:54:39;16.60;99.90
3940;DHT22;1984;48.312;9.244;2023-05-27T06:57:05;16.80;99.90
3940;DHT22;1984;48.312;9.244;2023-05-27T06:59:30;17.00;99.90
3940;DHT22;1984;48.312;9.244;2023-05-27T07:01:56;17.10;99.90
3940;DHT22;1984;48.312;9.244;2023-05-27T07:04:22;17.60;99.90
3940;DHT22;1984;48.312;9.244;2023-05-27T07:06:47;18.20;99.90
3940;DHT22;1984;48.312;9.244;2023-05-27T07:09:13;18.60;99.90
3940;DHT22;1984;48.312;9.244;2023-05-27T07:11:39;18.90;99.90
3940;DHT22;1984;48.312;9.244;2023-05-27T07:14:05;19.30;99.90
3940;DHT22;1984;48.312;9.244;2023-05-27T07:16:31;19.50;99.90
3940;DHT22;1984;48.312;9.244;2023-05-27T07:18:56;19.80;99.90
3940;DHT22;1984;48.312;9.244;2023-05-27T07:21:22;20.40;99.90
3940;DHT22;1984;48.312;9.244;2023-05-27T07:23:47;20.60;99.90
3940;DHT22;1984;48.312;9.244;2023-05-27T07:26:13;21.00;99.90
3940;DHT22;1984;48.312;9.244;2023-05-27T07:28:38;21.70;99.90
3940;DHT22;1984;48.312;9.244;2023-05-27T07:31:04;21.70;99.90
3940;DHT22;1984;48.312;9.244;2023-05-27T07:33:30;21.50;99.90
3940;DHT22;1984;48.312;9.244;2023-05-27T07:35:56;21.30;99.90
3940;DHT22;1984;48.312;9.244;2023-05-27T07:38:21;21.60;99.90
3940;DHT22;1984;48.312;9.244;2023-05-27T07:40:47;22.10;99.90
3940;DHT22;1984;48.312;9.244;2023-05-27T07:43:13;23.00;99.90
3940;DHT22;1984;48.312;9.244;2023-05-27T07:45:38;23.60;99.90
3940;DHT22;1984;48.312;9.244;2023-05-27T07:48:04;23.70;98.90
3940;DHT22;1984;48.312;9.244;2023-05-27T07:50:29;23.10;99.10
3940;DHT22;1984;48.312;9.244;2023-05-27T07:52:55;23.00;99.40
3940;DHT22;1984;48.312;9.244;2023-05-27T07:55:20;23.50;98.90
3940;DHT22;1984;48.312;9.244;2023-05-27T07:57:46;23.70;97.90
3940;DHT22;1984;48.312;9.244;2023-05-27T08:00:12;23.80;97.80
3940;DHT22;1984;48.312;9.244;2023-05-27T08:02:38;23.60;98.10
3940;DHT22;1984;48.312;9.244;2023-05-27T08:05:03;23.30;98.40
3940;DHT22;1984;48.312;9.244;2023-05-27T08:07:30;23.60;98.40
3940;DHT22;1984;48.312;9.244;2023-05-27T08:09:55;24.10;97.60
3940;DHT22;1984;48.312;9.244;2023-05-27T08:12:21;24.60;96.70
3940;DHT22;1984;48.312;9.244;2023-05-27T08:14:48;24.50;96.50
3940;DHT22;1984;48.312;9.244;2023-05-27T08:17:14;24.20;97.20
3940;DHT22;1984;48.312;9.244;2023-05-27T08:19:39;24.50;96.10
3940;DHT22;1984;48.312;9.244;2023-05-27T08:22:05;25.10;95.30
3940;DHT22;1984;48.312;9.244;2023-05-27T08:24:34;25.80;94.60
3940;DHT22;1984;48.312;9.244;2023-05-27T08:27:00;26.30;92.70
3940;DHT22;1984;48.312;9.244;2023-05-27T08:29:26;26.30;92.30
3940;DHT22;1984;48.312;9.244;2023-05-27T08:31:53;26.50;92.30
3940;DHT22;1984;48.312;9.244;2023-05-27T08:34:19;26.80;91.50
3940;DHT22;1984;48.312;9.244;2023-05-27T08:36:44;27.00;90.70
3940;DHT22;1984;48.312;9.244;2023-05-27T08:39:10;27.30;90.50
3940;DHT22;1984;48.312;9.244;2023-05-27T08:41:36;27.10;90.20
3940;DHT22;1984;48.312;9.244;2023-05-27T08:44:02;26.70;91.40
3940;DHT22;1984;48.312;9.244;2023-05-27T08:46:27;26.70;90.70
3940;DHT22;1984;48.312;9.244;2023-05-27T08:48:54;27.00;88.50
3940;DHT22;1984;48.312;9.244;2023-05-27T08:51:21;27.10;87.70
3940;DHT22;1984;48.312;9.244;2023-05-27T08:53:47;27.40;87.20
3940;DHT22;1984;48.312;9.244;2023-05-27T08:56:15;27.80;85.60
3940;DHT22;1984;48.312;9.244;2023-05-27T08:58:44;28.10;86.20
3940;DHT22;1984;48.312;9.244;2023-05-27T09:01:10;28.20;85.90
3940;DHT22;1984;48.312;9.244;2023-05-27T09:03:35;28.50;82.70
3940;DHT22;1984;48.312;9.244;2023-05-27T09:06:02;28.30;84.60
3940;DHT22;1984;48.312;9.244;2023-05-27T09:08:30;28.60;81.60
3940;DHT22;1984;48.312;9.244;2023-05-27T09:10:55;28.10;82.80
3940;DHT22;1984;48.312;9.244;2023-05-27T09:13:31;27.90;83.30
3940;DHT22;1984;48.312;9.244;2023-05-27T09:16:04;27.60;83.00
3940;DHT22;1984;48.312;9.244;2023-05-27T09:18:31;27.60;85.20
3940;DHT22;1984;48.312;9.244;2023-05-27T09:20:57;27.80;82.70
3940;DHT22;1984;48.312;9.244;2023-05-27T09:23:23;28.80;81.10
3940;DHT22;1984;48.312;9.244;2023-05-27T09:25:49;29.00;82.30
3940;DHT22;1984;48.312;9.244;2023-05-27T09:28:25;29.20;78.90
3940;DHT22;1984;48.312;9.244;2023-05-27T09:31:01;28.90;79.50
3940;DHT22;1984;48.312;9.244;2023-05-27T09:33:31;28.50;78.80
3940;DHT22;1984;48.312;9.244;2023-05-27T09:35:58;28.40;79.10
3940;DHT22;1984;48.312;9.244;2023-05-27T09:38:23;28.30;79.70
3940;DHT22;1984;48.312;9.244;2023-05-27T09:40:49;29.10;77.90
3940;DHT22;1984;48.312;9.244;2023-05-27T09:43:15;29.20;77.40
3940;DHT22;1984;48.312;9.244;2023-05-27T09:45:42;29.30;78.10
3940;DHT22;1984;48.312;9.244;2023-05-27T09:48:10;28.60;76.20
3940;DHT22;1984;48.312;9.244;2023-05-27T09:50:37;28.10;77.50
3940;DHT22;1984;48.312;9.244;2023-05-27T09:53:04;27.10;81.50
3940;DHT22;1984;48.312;9.244;2023-05-27T09:55:30;26.90;80.40
3940;DHT22;1984;48.312;9.244;2023-05-27T09:57:56;26.50;82.00
3940;DHT22;1984;48.312;9.244;2023-05-27T10:00:23;26.70;79.10
3940;DHT22;1984;48.312;9.244;2023-05-27T10:02:49;26.30;80.30
3940;DHT22;1984;48.312;9.244;2023-05-27T10:05:16;25.90;81.60
3940;DHT22;1984;48.312;9.244;2023-05-27T10:07:44;25.70;81.30
3940;DHT22;1984;48.312;9.244;2023-05-27T10:10:12;26.20;81.90
3940;DHT22;1984;48.312;9.244;2023-05-27T10:12:40;25.50;81.60
3940;DHT22;1984;48.312;9.244;2023-05-27T10:15:07;25.30;82.40
3940;DHT22;1984;48.312;9.244;2023-05-27T10:17:52;25.40;83.00
3940;DHT22;1984;48.312;9.244;2023-05-27T10:20:27;25.70;81.60
3940;DHT22;1984;48.312;9.244;2023-05-27T10:22:53;25.30;83.60
3940;DHT22;1984;48.312;9.244;2023-05-27T10:25:19;25.80;82.50
3940;DHT22;1984;48.312;9.244;2023-05-27T10:27:48;25.40;84.00
3940;DHT22;1984;48.312;9.244;2023-05-27T10:30:15;25.70;84.10
3940;DHT22;1984;48.312;9.244;2023-05-27T10:32:47;25.50;81.40
3940;DHT22;1984;48.312;9.244;2023-05-27T10:35:13;24.70;83.80
3940;DHT22;1984;48.312;9.244;2023-05-27T10:37:41;24.80;84.30
3940;DHT22;1984;48.312;9.244;2023-05-27T10:40:07;25.30;82.30
3940;DHT22;1984;48.312;9.244;2023-05-27T10:42:33;26.20;81.00
3940;DHT22;1984;48.312;9.244;2023-05-27T10:45:09;27.10;82.10
3940;DHT22;1984;48.312;9.244;2023-05-27T10:47:43;27.40;76.60
3940;DHT22;1984;48.312;9.244;2023-05-27T10:50:11;27.20;76.70
3940;DHT22;1984;48.312;9.244;2023-05-27T10:52:40;27.00;78.60
3940;DHT22;1984;48.312;9.244;2023-05-27T10:55:06;26.90;79.20
3940;DHT22;1984;48.312;9.244;2023-05-27T10:57:33;27.20;77.90
3940;DHT22;1984;48.312;9.244;2023-05-27T11:00:04;26.80;76.90
3940;DHT22;1984;48.312;9.244;2023-05-27T11:02:33;25.90;78.30
3940;DHT22;1984;48.312;9.244;2023-05-27T11:05:00;25.20;80.80
3940;DHT22;1984;48.312;9.244;2023-05-27T11:07:26;24.80;80.30
3940;DHT22;1984;48.312;9.244;2023-05-27T11:09:54;24.70;81.70
3940;DHT22;1984;48.312;9.244;2023-05-27T11:12:22;24.80;82.80
3940;DHT22;1984;48.312;9.244;2023-05-27T11:14:55;24.80;83.60
3940;DHT22;1984;48.312;9.244;2023-05-27T11:17:22;24.60;82.50
3940;DHT22;1984;48.312;9.244;2023-05-27T11:19:47;24.40;81.10
3940;DHT22;1984;48.312;9.244;2023-05-27T11:22:15;24.10;84.50
3940;DHT22;1984;48.312;9.244;2023-05-27T11:24:42;24.10;84.10
3940;DHT22;1984;48.312;9.244;2023-05-27T11:27:12;24.00;86.80
3940;DHT22;1984;48.312;9.244;2023-05-27T11:29:39;23.80;86.20
3940;DHT22;1984;48.312;9.244;2023-05-27T11:32:05;23.30;85.90
3940;DHT22;1984;48.312;9.244;2023-05-27T11:34:34;22.80;86.80
3940;DHT22;1984;48.312;9.244;2023-05-27T11:37:04;22.40;88.40
3940;DHT22;1984;48.312;9.244;2023-05-27T11:39:31;22.50;86.80
3940;DHT22;1984;48.312;9.244;2023-05-27T11:41:58;22.60;87.80
3940;DHT22;1984;48.312;9.244;2023-05-27T11:44:24;22.70;87.30
3940;DHT22;1984;48.312;9.244;2023-05-27T11:46:52;22.60;87.40
3940;DHT22;1984;48.312;9.244;2023-05-27T11:49:19;22.40;88.40
3940;DHT22;1984;48.312;9.244;2023-05-27T11:51:49;22.30;89.70
3940;DHT22;1984;48.312;9.244;2023-05-27T11:54:19;22.10;88.10
3940;DHT22;1984;48.312;9.244;2023-05-27T11:56:46;22.00;90.00
3940;DHT22;1984;48.312;9.244;2023-05-27T11:59:12;21.90;89.10
3940;DHT22;1984;48.312;9.244;2023-05-27T12:01:39;22.00;90.00
3940;DHT22;1984;48.312;9.244;2023-05-27T12:04:05;22.00;90.50
3940;DHT22;1984;48.312;9.244;2023-05-27T12:06:31;22.20;91.90
3940;DHT22;1984;48.312;9.244;2023-05-27T12:08:57;22.40;90.30
3940;DHT22;1984;48.312;9.244;2023-05-27T12:11:22;22.30;89.30
3940;DHT22;1984;48.312;9.244;2023-05-27T12:13:48;22.20;90.10
3940;DHT22;1984;48.312;9.244;2023-05-27T12:16:13;22.10;90.20
3940;DHT22;1984;48.312;9.244;2023-05-27T12:18:39;22.00;88.80
3940;DHT22;1984;48.312;9.244;2023-05-27T12:21:06;21.80;90.10
3940;DHT22;1984;48.312;9.244;2023-05-27T12:23:33;21.80;89.80
3940;DHT22;1984;48.312;9.244;2023-05-27T12:25:58;21.70;89.60
3940;DHT22;1984;48.312;9.244;2023-05-27T12:28:24;21.70;90.40
3940;DHT22;1984;48.312;9.244;2023-05-27T12:30:49;21.80;90.00
3940;DHT22;1984;48.312;9.244;2023-05-27T12:33:15;22.00;89.60
3940;DHT22;1984;48.312;9.244;2023-05-27T12:35:41;22.00;88.10
3940;DHT22;1984;48.312;9.244;2023-05-27T12:38:06;21.90;87.60
3940;DHT22;1984;48.312;9.244;2023-05-27T12:40:32;22.00;89.60
3940;DHT22;1984;48.312;9.244;2023-05-27T12:42:58;22.20;88.00
3940;DHT22;1984;48.312;9.244;2023-05-27T12:45:24;22.40;88.70
3940;DHT22;1984;48.312;9.244;2023-05-27T12:47:51;22.30;87.80
3940;DHT22;1984;48.312;9.244;2023-05-27T12:50:17;22.20;86.20
3940;DHT22;1984;48.312;9.244;2023-05-27T12:52:43;21.90;88.60
3940;DHT22;1984;48.312;9.244;2023-05-27T12:55:14;21.90;89.90
3940;DHT22;1984;48.312;9.244;2023-05-27T12:57:39;22.00;87.90
3940;DHT22;1984;48.312;9.244;2023-05-27T13:00:06;21.80;89.60
3940;DHT22;1984;48.312;9.244;2023-05-27T13:02:32;21.80;89.30
3940;DHT22;1984;48.312;9.244;2023-05-27T13:04:57;21.80;89.90
3940;DHT22;1984;48.312;9.244;2023-05-27T13:07:25;21.60;88.60
3940;DHT22;1984;48.312;9.244;2023-05-27T13:09:51;21.40;87.10
3940;DHT22;1984;48.312;9.244;2023-05-27T13:12:16;21.20;87.90
3940;DHT22;1984;48.312;9.244;2023-05-27T13:14:42;21.20;90.40
3940;DHT22;1984;48.312;9.244;2023-05-27T13:17:08;21.30;88.70
3940;DHT22;1984;48.312;9.244;2023-05-27T13:19:34;21.30;86.70
3940;DHT22;1984;48.312;9.244;2023-05-27T13:22:00;21.40;88.90
3940;DHT22;1984;48.312;9.244;2023-05-27T13:24:25;21.50;90.00
3940;DHT22;1984;48.312;9.244;2023-05-27T13:26:51;21.50;89.00
3940;DHT22;1984;48.312;9.244;2023-05-27T13:29:16;21.60;88.50
3940;DHT22;1984;48.312;9.244;2023-05-27T13:31:42;21.60;89.10
3940;DHT22;1984;48.312;9.244;2023-05-27T13:34:07;21.70;88.80
3940;DHT22;1984;48.312;9.244;2023-05-27T13:36:33;21.60;87.10
3940;DHT22;1984;48.312;9.244;2023-05-27T13:38:58;21.50;87.70
3940;DHT22;1984;48.312;9.244;2023-05-27T13:41:24;21.40;88.70
3940;DHT22;1984;48.312;9.244;2023-05-27T13:43:49;21.40;89.40
3940;DHT22;1984;48.312;9.244;2023-05-27T13:46:15;21.30;87.70
3940;DHT22;1984;48.312;9.244;2023-05-27T13:48:40;21.30;90.90
3940;DHT22;1984;48.312;9.244;2023-05-27T13:51:06;21.30;88.90
3940;DHT22;1984;48.312;9.244;2023-05-27T13:53:32;21.20;89.60
3940;DHT22;1984;48.312;9.244;2023-05-27T13:55:57;21.20;90.20
3940;DHT22;1984;48.312;9.244;2023-05-27T13:58:23;21.30;90.10
3940;DHT22;1984;48.312;9.244;2023-05-27T14:00:48;21.30;88.70
3940;DHT22;1984;48.312;9.244;2023-05-27T14:03:14;21.30;89.00
3940;DHT22;1984;48.312;9.244;2023-05-27T14:05:39;21.20;88.00
3940;DHT22;1984;48.312;9.244;2023-05-27T14:08:05;21.40;89.00
3940;DHT22;1984;48.312;9.244;2023-05-27T14:10:33;21.50;88.30
3940;DHT22;1984;48.312;9.244;2023-05-27T14:12:59;21.40;87.50
3940;DHT22;1984;48.312;9.244;2023-05-27T14:15:25;21.30;89.50
3940;DHT22;1984;48.312;9.244;2023-05-27T14:17:55;21.40;89.00
3940;DHT22;1984;48.312;9.244;2023-05-27T14:20:21;21.50;90.10
3940;DHT22;1984;48.312;9.244;2023-05-27T14:22:47;21.60;88.20
3940;DHT22;1984;48.312;9.244;2023-05-27T14:25:12;21.60;87.50
3940;DHT22;1984;48.312;9.244;2023-05-27T14:27:40;21.80;87.80
3940;DHT22;1984;48.312;9.244;2023-05-27T14:30:07;21.90;88.80
3940;DHT22;1984;48.312;9.244;2023-05-27T14:32:32;21.90;87.20
3940;DHT22;1984;48.312;9.244;2023-05-27T14:34:58;21.90;87.80
3940;DHT22;1984;48.312;9.244;2023-05-27T14:37:23;21.70;86.50
3940;DHT22;1984;48.312;9.244;2023-05-27T14:39:51;21.60;88.20
3940;DHT22;1984;48.312;9.244;2023-05-27T14:42:17;21.60;87.00
3940;DHT22;1984;48.312;9.244;2023-05-27T14:44:43;21.50;86.60
3940;DHT22;1984;48.312;9.244;2023-05-27T14:47:09;21.40;85.50
3940;DHT22;1984;48.312;9.244;2023-05-27T14:49:35;21.40;84.80
3940;DHT22;1984;48.312;9.244;2023-05-27T14:52:01;21.40;86.10
3940;DHT22;1984;48.312;9.244;2023-05-27T14:54:27;21.50;86.90
3940;DHT22;1984;48.312;9.244;2023-05-27T14:56:52;21.50;87.40
3940;DHT22;1984;48.312;9.244;2023-05-27T14:59:18;21.50;86.30
3940;DHT22;1984;48.312;9.244;2023-05-27T15:01:47;21.50;86.20
3940;DHT22;1984;48.312;9.244;2023-05-27T15:04:12;21.40;84.60
3940;DHT22;1984;48.312;9.244;2023-05-27T15:06:38;21.30;83.00
3940;DHT22;1984;48.312;9.244;2023-05-27T15:09:03;21.20;83.10
3940;DHT22;1984;48.312;9.244;2023-05-27T15:11:29;21.10;85.30
3940;DHT22;1984;48.312;9.244;2023-05-27T15:13:56;20.90;84.40
3940;DHT22;1984;48.312;9.244;2023-05-27T15:16:21;20.90;85.90
3940;DHT22;1984;48.312;9.244;2023-05-27T15:18:47;21.00;86.40
3940;DHT22;1984;48.312;9.244;2023-05-27T15:21:13;21.10;85.20
3940;DHT22;1984;48.312;9.244;2023-05-27T15:23:38;21.20;85.10
3940;DHT22;1984;48.312;9.244;2023-05-27T15:26:05;21.20;82.50
3940;DHT22;1984;48.312;9.244;2023-05-27T15:28:31;21.20;81.00
3940;DHT22;1984;48.312;9.244;2023-05-27T15:30:56;21.30;82.50
3940;DHT22;1984;48.312;9.244;2023-05-27T15:33:22;21.40;79.80
3940;DHT22;1984;48.312;9.244;2023-05-27T15:35:47;21.30;81.60
3940;DHT22;1984;48.312;9.244;2023-05-27T15:38:13;21.40;80.50
3940;DHT22;1984;48.312;9.244;2023-05-27T15:40:41;21.40;79.20
3940;DHT22;1984;48.312;9.244;2023-05-27T15:43:09;21.30;78.90
3940;DHT22;1984;48.312;9.244;2023-05-27T15:45:36;21.30;78.70
3940;DHT22;1984;48.312;9.244;2023-05-27T15:48:05;21.10;78.70
3940;DHT22;1984;48.312;9.244;2023-05-27T15:50:31;21.00;79.90
3940;DHT22;1984;48.312;9.244;2023-05-27T15:52:56;20.90;80.30
3940;DHT22;1984;48.312;9.244;2023-05-27T15:55:22;20.80;79.90
3940;DHT22;1984;48.312;9.244;2023-05-27T15:57:47;20.70;81.10
3940;DHT22;1984;48.312;9.244;2023-05-27T16:00:13;20.80;80.40